Darby, MT

8:14 PM MDT on August 30, 2014 (GMT -0600)
RAWS SULA MT US | Change Station
CLOSE
Current Station
Personal Weather Station
Location: Sula, MT
Elevation: 4569 ft
Nearby Weather Stations

Elev 4569 ft 45.82 °N, 113.95 °W | Updated 46 minutes ago

Mostly Cloudy
Mostly Cloudy
68 °F
Feels Like 68 °F
N
0
Wind Variable Wind from North
Gusts 16.0 mph

Today
High -- | Low -- °F
--% Chance of Precip.
Yesterday
High -- | Low -- °F
Precip. -- in
6:55 AM 8:18 PM
Waxing Crescent, 26% visible
Pressure 29.88 in
Visibility 10.0 miles
Clouds Few 7000 ft
Mostly Cloudy 9500 ft
Mostly Cloudy 12000 ft
Dew Point 39 °F
Humidity 34%
Rainfall 0.06 in
Snow Depth 0 in
UV 0 out of 12
Pollen 8.00 out of 12
Air Quality Not available.
Flu Activity Not available.
METAR KSMN 310155Z AUTO 00000KT 10SM FEW070 BKN095 BKN120 14/11 A2988 RMK AO1 P0001

More Conditions Fewer Conditions

Pressure 29.88 in
Visibility 10.0 miles
Clouds Few 7000 ft
Mostly Cloudy 9500 ft
Mostly Cloudy 12000 ft
Dew Point 39 °F
Humidity 34%
Rainfall 0.06 in
Snow Depth 0 in
UV 0 out of 12
Pollen 8.00 out of 12
Air Quality Not available.
Flu Activity Not available.
METAR KSMN 310155Z AUTO 00000KT 10SM FEW070 BKN095 BKN120 14/11 A2988 RMK AO1 P0001

More Conditions Fewer Conditions

10-Day Weather Forecast

Almanac

Astronomy

Aug. 30, 2014 Rise Set
Actual Time 6:55 AM MDT 8:18 PM MDT
Civil Twilight 6:24 AM MDT 8:49 PM MDT
Nautical Twilight 5:46 AM MDT 9:26 PM MDT
Astronomical Twilight 5:06 AM MDT 10:06 PM MDT
Moon 12:04 PM MDT (8/30) 10:37 PM MDT (8/30)
Length of Visible Light 14h 25m
Length of Day
13h 23m
Tomorrow will be 3m 7s shorter.
Waxing Crescent, 26% of the Moon is Illuminated
Today
Waxing Crescent
Sep 2
First Quarter
Sep 8
Full
Sep 15
Last Quarter
Sep 24
New

Today's Extremes

State Highs State Lows

Community

WunderPhotos

Upload Photos

1,748,736 photos uploaded!

Nearby

Snow Depth

Station Depth Elevation
Twelvemile Creek 0 in 5600 ft
Skalkaho Summit 0 in 7250 ft
Black Pine 0 in 7210 ft
Combination 0 in 5600 ft
Barker Lakes 0 in 8250 ft

Earthquake Activity

City Distance Mag. Time & Date
No recent earthquake activity has been reported nearby.
Minimum magnitude displayed is 2.5.

Coastal Water Temperatures

Place Temperature
No Stations Reporting

Nearby Weather Stations